createdAt,value
2017-10-19T00:02:24.493Z,70.60
2017-10-19T00:04:50.714Z,70.60
2017-10-19T00:07:16.948Z,69.60
2017-10-19T00:09:43.218Z,70.30
2017-10-19T00:12:09.606Z,70.60
2017-10-19T00:17:29.155Z,70.30
2017-10-19T00:19:56.180Z,70.50
2017-10-19T00:22:23.222Z,71.40
2017-10-19T00:24:49.589Z,70.60
2017-10-19T00:27:15.901Z,70.20
2017-10-19T00:29:42.908Z,70.70
2017-10-19T00:32:09.189Z,70.70
2017-10-19T00:34:35.498Z,70.70
2017-10-19T00:37:01.753Z,71.20
2017-10-19T00:39:28.108Z,71.30
2017-10-19T00:41:54.401Z,71.00
2017-10-19T00:44:21.485Z,72.10
2017-10-19T00:46:47.863Z,71.30
2017-10-19T00:49:14.098Z,71.40
2017-10-19T00:51:40.394Z,72.10
2017-10-19T00:54:06.684Z,72.20
2017-10-19T00:56:33.675Z,72.10
2017-10-19T00:58:59.982Z,72.10
2017-10-19T01:01:26.334Z,71.90
2017-10-19T01:03:52.690Z,72.50
2017-10-19T01:06:19.009Z,71.00
2017-10-19T01:08:45.319Z,72.00
2017-10-19T01:11:11.654Z,71.60
2017-10-19T01:13:37.955Z,71.70
2017-10-19T01:16:04.276Z,72.20
2017-10-19T01:18:31.300Z,72.10
2017-10-19T01:32:23.823Z,72.10
2017-10-19T01:34:50.779Z,72.20
2017-10-19T01:37:17.764Z,71.90
2017-10-19T01:39:44.048Z,71.80
2017-10-19T01:42:11.021Z,72.10
2017-10-19T01:44:37.235Z,72.10
2017-10-19T01:47:04.203Z,72.20
2017-10-19T01:52:30.515Z,71.80
2017-10-19T01:54:57.524Z,72.10
2017-10-19T01:57:23.670Z,72.00
2017-10-19T01:59:49.876Z,71.90
2017-10-19T02:02:16.057Z,72.60
2017-10-19T02:04:42.973Z,72.50
2017-10-19T02:07:09.205Z,72.50
2017-10-19T02:09:35.357Z,72.60
2017-10-19T02:12:02.343Z,73.00
2017-10-19T02:14:28.645Z,73.00
2017-10-19T02:16:54.904Z,73.50
2017-10-19T02:19:21.099Z,73.10
2017-10-19T02:21:47.280Z,72.80
2017-10-19T02:24:13.414Z,73.20
2017-10-19T02:26:39.597Z,72.70
2017-10-19T02:29:05.784Z,72.70
2017-10-19T02:31:31.994Z,72.70
2017-10-19T02:33:58.151Z,73.00
2017-10-19T02:36:25.067Z,72.60
2017-10-19T02:38:51.273Z,72.60
2017-10-19T02:41:17.423Z,73.30
2017-10-19T02:43:43.623Z,73.30
2017-10-19T02:46:09.762Z,73.60
2017-10-19T02:48:35.977Z,73.60
2017-10-19T02:51:02.228Z,74.40
2017-10-19T02:53:28.392Z,74.40
2017-10-19T02:55:55.335Z,74.20
2017-10-19T02:58:22.277Z,73.80
2017-10-19T03:00:49.241Z,74.00
2017-10-19T03:03:15.433Z,74.00
2017-10-19T03:05:41.692Z,74.30
2017-10-19T03:08:07.879Z,74.00
2017-10-19T03:10:34.172Z,73.70
2017-10-19T03:13:00.827Z,73.90
2017-10-19T03:15:27.021Z,74.00
2017-10-19T03:17:53.194Z,74.20
2017-10-19T03:20:19.725Z,74.20
2017-10-19T03:22:45.920Z,74.90
2017-10-19T03:25:12.114Z,75.20
2017-10-19T03:27:38.356Z,75.50
2017-10-19T03:30:05.289Z,76.10
2017-10-19T03:32:32.264Z,75.70
2017-10-19T03:34:58.535Z,75.70
2017-10-19T03:37:24.749Z,75.00
2017-10-19T03:39:50.914Z,74.60
2017-10-19T03:42:17.517Z,74.30
2017-10-19T03:44:43.747Z,73.90
2017-10-19T03:47:10.005Z,73.90
2017-10-19T03:49:36.194Z,74.20
2017-10-19T03:52:02.394Z,74.50
2017-10-19T03:54:28.589Z,74.20
2017-10-19T03:56:54.804Z,75.40
2017-10-19T03:59:20.985Z,75.60
2017-10-19T04:01:47.205Z,75.60
2017-10-19T04:04:13.420Z,75.60
2017-10-19T04:06:40.314Z,74.80
2017-10-19T04:09:06.509Z,74.80
2017-10-19T04:11:33.070Z,75.90
2017-10-19T04:13:59.316Z,75.60
2017-10-19T04:16:25.523Z,75.60
2017-10-19T04:18:51.731Z,75.90
2017-10-19T04:21:17.944Z,74.90
2017-10-19T04:23:44.094Z,75.10
2017-10-19T04:26:10.265Z,75.40
2017-10-19T04:28:36.396Z,75.70
2017-10-19T04:31:03.300Z,75.70
2017-10-19T04:33:29.479Z,75.70
2017-10-19T04:35:56.442Z,76.20
2017-10-19T04:38:22.618Z,76.20
2017-10-19T04:40:48.868Z,75.30
2017-10-19T04:43:15.018Z,74.90
2017-10-19T04:45:41.924Z,74.50
2017-10-19T04:48:08.151Z,74.50
2017-10-19T04:50:34.321Z,73.90
2017-10-19T04:53:00.504Z,73.20
2017-10-19T04:55:26.712Z,73.10
2017-10-19T04:57:52.900Z,72.70
2017-10-19T05:00:19.821Z,72.60
2017-10-19T05:02:46.165Z,72.60
2017-10-19T05:05:13.072Z,72.70
2017-10-19T05:07:39.246Z,72.70
2017-10-19T05:10:06.230Z,72.40
2017-10-19T05:12:32.465Z,72.20
2017-10-19T05:14:58.721Z,73.10
2017-10-19T05:17:25.200Z,73.00
2017-10-19T05:19:51.429Z,72.80
2017-10-19T05:22:17.661Z,73.10
2017-10-19T05:24:43.855Z,72.70
2017-10-19T05:27:10.066Z,72.50
2017-10-19T05:29:37.028Z,71.90
2017-10-19T05:32:04.017Z,71.50
2017-10-19T05:34:30.204Z,71.50
2017-10-19T05:36:57.089Z,72.40
2017-10-19T05:39:23.322Z,72.40
2017-10-19T05:41:49.497Z,72.40
2017-10-19T05:44:15.675Z,72.00
2017-10-19T05:46:41.860Z,73.30
2017-10-19T05:49:08.820Z,74.10
2017-10-19T05:51:35.805Z,74.30
2017-10-19T05:54:02.087Z,74.20
2017-10-19T05:56:29.054Z,75.20
2017-10-19T05:58:55.215Z,75.10
2017-10-19T06:01:21.446Z,75.00
2017-10-19T06:03:47.657Z,76.10
2017-10-19T06:06:13.871Z,75.50
2017-10-19T06:08:40.050Z,75.70
2017-10-19T06:11:06.226Z,76.20
2017-10-19T06:13:32.342Z,76.50
2017-10-19T06:15:58.921Z,75.90
2017-10-19T06:18:25.073Z,76.10
2017-10-19T06:20:51.245Z,76.10
2017-10-19T06:23:17.439Z,76.40
2017-10-19T06:25:44.373Z,76.40
2017-10-19T06:28:10.580Z,76.40
2017-10-19T06:30:36.781Z,75.00
2017-10-19T06:33:02.994Z,75.20
2017-10-19T06:35:29.105Z,75.00
2017-10-19T06:37:59.261Z,75.00
2017-10-19T06:40:25.518Z,74.90
2017-10-19T06:42:51.697Z,75.30
2017-10-19T06:45:17.949Z,75.20
2017-10-19T06:47:44.128Z,74.90
2017-10-19T06:50:11.081Z,74.10
2017-10-19T06:52:38.852Z,74.10
2017-10-19T06:55:05.491Z,74.10
2017-10-19T06:57:31.743Z,72.40
2017-10-19T06:59:58.120Z,69.90
2017-10-19T07:02:24.305Z,67.30
2017-10-19T07:04:51.956Z,66.30
2017-10-19T07:07:18.290Z,65.20
2017-10-19T07:09:44.485Z,66.60
2017-10-19T07:12:10.650Z,66.40
2017-10-19T07:14:37.946Z,68.60
2017-10-19T07:17:04.207Z,69.50
2017-10-19T07:19:30.394Z,70.10
2017-10-19T07:21:57.016Z,70.80
2017-10-19T07:24:23.220Z,70.90
2017-10-19T07:26:49.463Z,72.00
2017-10-19T07:29:15.692Z,72.90
2017-10-19T07:31:41.919Z,72.50
2017-10-19T07:34:08.206Z,72.50
2017-10-19T07:36:35.181Z,72.90
2017-10-19T07:39:01.373Z,72.80
2017-10-19T07:41:28.349Z,73.50
2017-10-19T07:43:54.571Z,73.40
2017-10-19T07:46:20.710Z,73.20
2017-10-19T07:48:47.042Z,71.60
2017-10-19T07:51:13.608Z,70.30
2017-10-19T07:53:39.817Z,69.50
2017-10-19T07:56:06.800Z,69.70
2017-10-19T07:58:33.014Z,70.30
2017-10-19T08:00:59.168Z,70.50
2017-10-19T08:03:26.061Z,71.40
2017-10-19T08:05:52.292Z,71.30
2017-10-19T08:08:18.500Z,71.60
2017-10-19T08:10:44.654Z,71.60
2017-10-19T08:13:10.901Z,72.20
2017-10-19T08:15:38.186Z,71.80
2017-10-19T08:18:05.115Z,71.30
2017-10-19T08:20:32.030Z,72.10
2017-10-19T08:22:58.229Z,71.60
2017-10-19T08:25:24.453Z,71.30
2017-10-19T08:27:50.697Z,71.40
2017-10-19T08:30:17.391Z,71.30
2017-10-19T08:32:43.639Z,70.90
2017-10-19T08:35:09.805Z,70.40
2017-10-19T08:37:35.954Z,70.10
2017-10-19T08:40:02.180Z,70.40
2017-10-19T08:42:28.763Z,70.10
2017-10-19T08:44:54.944Z,68.60
2017-10-19T08:47:21.074Z,68.90
2017-10-19T08:49:49.366Z,69.70
2017-10-19T08:52:16.345Z,68.70
2017-10-19T08:54:42.530Z,68.60
2017-10-19T08:57:08.697Z,68.70
2017-10-19T08:59:34.876Z,69.30
2017-10-19T09:02:01.051Z,68.50
2017-10-19T09:04:28.001Z,67.90
2017-10-19T09:06:54.207Z,68.30
2017-10-19T09:09:21.148Z,67.90
2017-10-19T09:11:48.061Z,67.50
2017-10-19T09:14:14.259Z,67.40
2017-10-19T09:16:40.403Z,68.20
2017-10-19T09:19:06.629Z,67.90
2017-10-19T09:21:32.781Z,67.60
2017-10-19T09:23:58.944Z,66.90
2017-10-19T09:26:25.516Z,67.20
2017-10-19T09:28:51.736Z,67.30
2017-10-19T09:31:17.955Z,66.80
2017-10-19T09:33:44.176Z,66.40
2017-10-19T09:36:10.334Z,65.90
2017-10-19T09:38:36.559Z,65.00
2017-10-19T09:41:02.807Z,65.90
2017-10-19T09:43:28.939Z,63.90
2017-10-19T09:45:55.113Z,64.40
2017-10-19T09:48:21.575Z,64.60
2017-10-19T09:50:47.717Z,61.80
2017-10-19T09:53:13.889Z,61.80
2017-10-19T09:55:40.774Z,61.50
2017-10-19T09:58:06.915Z,61.50
2017-10-19T10:00:33.098Z,62.30
2017-10-19T10:02:59.282Z,59.70
2017-10-19T10:05:25.481Z,60.80
2017-10-19T10:07:51.707Z,59.80
2017-10-19T10:10:17.869Z,59.70
2017-10-19T10:12:43.994Z,58.50
2017-10-19T10:15:10.405Z,59.00
2017-10-19T10:17:36.897Z,58.10
2017-10-19T10:20:03.085Z,56.70
2017-10-19T10:22:29.279Z,58.20
2017-10-19T10:24:55.749Z,57.10
2017-10-19T10:27:21.881Z,58.10
2017-10-19T10:29:48.057Z,57.10
2017-10-19T10:32:14.360Z,57.00
2017-10-19T10:34:41.291Z,55.60
2017-10-19T10:37:08.174Z,55.90
2017-10-19T10:39:34.346Z,55.80
2017-10-19T10:42:01.544Z,56.20
2017-10-19T10:44:27.690Z,55.50
2017-10-19T10:46:53.885Z,53.90
2017-10-19T10:49:20.839Z,55.00
2017-10-19T10:51:47.025Z,55.00
2017-10-19T10:54:13.245Z,55.70
2017-10-19T10:56:40.581Z,56.30
2017-10-19T10:59:06.798Z,56.20
2017-10-19T11:01:32.970Z,55.10
2017-10-19T11:03:59.192Z,53.70
2017-10-19T11:06:25.441Z,53.30
2017-10-19T11:08:52.749Z,53.20
2017-10-19T11:11:18.973Z,53.10
2017-10-19T11:13:45.179Z,54.00
2017-10-19T11:16:11.418Z,52.10
2017-10-19T11:18:37.635Z,50.50
2017-10-19T11:21:03.814Z,49.20
2017-10-19T11:23:29.969Z,50.90
2017-10-19T11:25:56.924Z,50.50
2017-10-19T11:28:23.073Z,50.50
2017-10-19T11:30:49.241Z,49.70
2017-10-19T11:33:15.432Z,46.80
2017-10-19T11:35:41.628Z,46.20
2017-10-19T11:38:07.796Z,45.60
2017-10-19T11:40:33.953Z,44.80
2017-10-19T11:43:00.153Z,46.00
2017-10-19T11:45:26.324Z,45.00
2017-10-19T11:47:53.244Z,46.70
2017-10-19T11:50:19.447Z,46.70
2017-10-19T11:52:45.676Z,47.80
2017-10-19T11:55:11.900Z,47.10
2017-10-19T11:57:38.112Z,48.10
2017-10-19T12:00:04.362Z,48.70
2017-10-19T12:02:30.526Z,47.10
2017-10-19T12:04:56.772Z,46.80
2017-10-19T12:07:23.693Z,46.50
2017-10-19T12:09:49.869Z,46.60
2017-10-19T12:12:16.059Z,47.40
2017-10-19T12:14:42.970Z,46.30
2017-10-19T12:17:09.169Z,46.20
2017-10-19T12:19:35.362Z,46.50
2017-10-19T12:22:02.291Z,45.50
2017-10-19T12:24:29.375Z,45.30
2017-10-19T12:26:55.527Z,45.20
2017-10-19T12:29:21.745Z,45.40
2017-10-19T12:31:47.937Z,45.80
2017-10-19T12:34:14.930Z,47.70
2017-10-19T12:36:41.113Z,47.50
2017-10-19T12:39:08.065Z,47.60
2017-10-19T12:41:35.000Z,47.40
2017-10-19T12:44:02.012Z,47.00
2017-10-19T12:46:28.224Z,47.00
2017-10-19T12:48:54.412Z,47.00
2017-10-19T12:51:21.365Z,46.80
2017-10-19T12:53:47.615Z,46.70
2017-10-19T12:56:14.238Z,45.70
2017-10-19T12:58:40.373Z,46.40
2017-10-19T13:01:06.514Z,45.90
2017-10-19T13:03:32.705Z,45.30
2017-10-19T13:05:59.594Z,46.30
2017-10-19T13:08:26.433Z,45.70
2017-10-19T13:10:52.606Z,46.20
2017-10-19T13:13:19.632Z,46.70
2017-10-19T13:15:46.559Z,45.50
2017-10-19T13:18:12.784Z,45.50
2017-10-19T13:20:38.995Z,45.80
2017-10-19T13:23:05.191Z,45.90
2017-10-19T13:25:32.157Z,46.60
2017-10-19T13:27:58.945Z,46.60
2017-10-19T13:30:25.132Z,47.50
2017-10-19T13:32:51.318Z,46.50
2017-10-19T13:35:17.506Z,47.30
2017-10-19T13:37:43.698Z,46.90
2017-10-19T13:40:09.894Z,45.90
2017-10-19T13:42:36.079Z,46.90
2017-10-19T13:45:02.206Z,48.10
2017-10-19T13:47:28.425Z,47.00
2017-10-19T13:49:54.616Z,47.00
2017-10-19T13:52:21.552Z,46.30
2017-10-19T13:54:47.791Z,46.30
2017-10-19T13:57:14.756Z,43.50
2017-10-19T13:59:40.926Z,43.30
2017-10-19T14:02:07.173Z,41.80
2017-10-19T14:04:33.460Z,39.60
2017-10-19T14:06:59.605Z,40.10
2017-10-19T14:09:25.838Z,39.10
2017-10-19T14:11:52.002Z,39.10
2017-10-19T14:14:18.989Z,37.00
2017-10-19T14:16:45.214Z,37.00
2017-10-19T14:19:11.360Z,38.00
2017-10-19T14:21:37.597Z,37.00
2017-10-19T14:24:04.587Z,37.20
2017-10-19T14:26:30.701Z,37.10
2017-10-19T14:28:56.872Z,37.70
2017-10-19T14:31:23.080Z,38.90
2017-10-19T14:33:49.246Z,39.00
2017-10-19T14:36:15.411Z,39.90
2017-10-19T14:38:42.689Z,43.10
2017-10-19T14:41:08.811Z,43.00
2017-10-19T14:43:35.706Z,44.60
2017-10-19T14:46:01.989Z,44.60
2017-10-19T14:48:28.180Z,43.80
2017-10-19T14:50:54.406Z,42.00
2017-10-19T14:53:20.597Z,42.70
2017-10-19T14:55:46.722Z,43.10
2017-10-19T14:58:12.932Z,42.50
2017-10-19T15:00:39.146Z,44.00
2017-10-19T15:03:06.080Z,44.30
2017-10-19T15:05:32.980Z,44.80
2017-10-19T15:07:59.219Z,44.60
2017-10-19T15:10:25.386Z,45.00
2017-10-19T15:12:52.285Z,45.80
2017-10-19T15:15:18.497Z,45.80
2017-10-19T15:17:44.646Z,46.70
2017-10-19T15:20:10.816Z,46.40
2017-10-19T15:22:37.038Z,47.20
2017-10-19T15:25:03.972Z,47.30
2017-10-19T15:27:30.850Z,48.50
2017-10-19T15:29:57.035Z,48.40
2017-10-19T15:32:23.181Z,49.70
2017-10-19T15:34:50.077Z,52.10
2017-10-19T15:37:16.700Z,52.00
2017-10-19T15:39:42.904Z,53.50
2017-10-19T15:42:09.125Z,51.40
2017-10-19T15:44:35.324Z,51.90
2017-10-19T15:47:02.251Z,53.00
2017-10-19T15:49:28.413Z,53.00
2017-10-19T15:51:55.395Z,53.10
2017-10-19T15:54:21.621Z,53.00
2017-10-19T15:56:47.823Z,53.60
2017-10-19T15:59:14.764Z,53.60
2017-10-19T16:01:41.695Z,53.60
2017-10-19T16:04:08.606Z,54.00
2017-10-19T16:06:34.839Z,54.00
2017-10-19T16:09:01.091Z,53.90
2017-10-19T16:11:28.075Z,55.20
2017-10-19T16:13:54.305Z,54.40
2017-10-19T16:16:20.514Z,54.50
2017-10-19T16:18:47.574Z,56.50
2017-10-19T16:21:13.808Z,56.50
2017-10-19T16:23:39.981Z,57.10
2017-10-19T16:26:06.153Z,57.50
2017-10-19T16:28:32.456Z,57.90
2017-10-19T16:30:58.634Z,58.20
2017-10-19T16:33:24.790Z,58.50
2017-10-19T16:35:51.912Z,58.60
2017-10-19T16:38:18.345Z,58.90
2017-10-19T16:40:44.577Z,59.20
2017-10-19T16:43:10.797Z,59.50
2017-10-19T16:45:36.955Z,59.70
2017-10-19T16:48:03.179Z,60.20
2017-10-19T16:50:29.429Z,60.60
2017-10-19T16:52:56.427Z,61.10
2017-10-19T16:55:22.592Z,61.00
2017-10-19T16:57:48.798Z,61.30
2017-10-19T17:00:15.521Z,61.30
2017-10-19T17:02:41.775Z,61.30
2017-10-19T17:05:08.129Z,61.90
2017-10-19T17:07:34.331Z,61.90
2017-10-19T17:10:00.529Z,62.40
2017-10-19T17:12:26.780Z,62.60
2017-10-19T17:14:52.989Z,62.70
2017-10-19T17:17:19.143Z,63.30
2017-10-19T17:19:45.610Z,62.90
2017-10-19T17:22:11.824Z,63.10
2017-10-19T17:24:38.022Z,63.70
2017-10-19T17:27:04.276Z,63.90
2017-10-19T17:29:30.448Z,64.10
2017-10-19T17:31:57.413Z,65.10
2017-10-19T17:34:23.689Z,65.10
2017-10-19T17:36:49.837Z,66.30
2017-10-19T17:39:16.780Z,66.60
2017-10-19T17:41:43.749Z,67.00
2017-10-19T17:44:09.956Z,66.90
2017-10-19T17:46:36.921Z,67.40
2017-10-19T17:49:03.125Z,67.40
2017-10-19T17:51:29.361Z,67.90
2017-10-19T17:53:56.262Z,68.40
2017-10-19T17:56:22.521Z,68.30
2017-10-19T17:58:49.521Z,69.40
2017-10-19T18:01:15.747Z,68.60
2017-10-19T18:03:41.920Z,68.60
2017-10-19T18:06:08.100Z,68.90
2017-10-19T18:08:34.321Z,69.30
2017-10-19T18:11:00.554Z,69.10
2017-10-19T18:13:26.751Z,69.30
2017-10-19T18:15:53.672Z,69.30
2017-10-19T18:18:20.667Z,69.50
2017-10-19T18:20:46.903Z,69.50
2017-10-19T18:23:13.082Z,70.00
2017-10-19T18:25:39.310Z,69.90
2017-10-19T18:28:05.536Z,70.30
2017-10-19T18:30:31.705Z,70.50
2017-10-19T18:32:57.886Z,70.50
2017-10-19T18:35:24.080Z,70.40
2017-10-19T18:37:50.249Z,70.20
2017-10-19T18:40:16.482Z,70.70
2017-10-19T18:42:43.431Z,70.80
2017-10-19T18:45:09.648Z,70.70
2017-10-19T18:47:35.822Z,70.80
2017-10-19T18:50:02.058Z,71.00
2017-10-19T18:52:28.300Z,71.00
2017-10-19T18:54:54.527Z,71.10
2017-10-19T18:57:20.776Z,71.00
2017-10-19T18:59:46.970Z,70.60
2017-10-19T19:02:13.161Z,70.80
2017-10-19T19:04:40.138Z,71.10
2017-10-19T19:07:06.319Z,71.00
2017-10-19T19:09:32.563Z,71.00
2017-10-19T19:11:59.655Z,70.80
2017-10-19T19:14:25.856Z,70.80
2017-10-19T19:16:52.041Z,71.00
2017-10-19T19:19:18.277Z,71.30
2017-10-19T19:21:44.569Z,71.40
2017-10-19T19:24:10.864Z,70.90
2017-10-19T19:26:37.136Z,70.70
2017-10-19T19:29:03.401Z,70.90
2017-10-19T19:31:30.340Z,70.90
2017-10-19T19:33:56.597Z,70.90
2017-10-19T19:36:23.537Z,71.10
2017-10-19T19:38:50.479Z,71.30
2017-10-19T19:41:17.451Z,71.60
2017-10-19T19:43:43.635Z,71.60
2017-10-19T19:46:10.648Z,72.20
2017-10-19T19:48:36.827Z,72.20
2017-10-19T19:51:03.786Z,72.00
2017-10-19T19:53:30.003Z,72.00
2017-10-19T19:55:57.016Z,71.80
2017-10-19T19:58:23.990Z,72.00
2017-10-19T20:00:50.923Z,72.00
2017-10-19T20:03:17.089Z,71.90
2017-10-19T20:05:43.254Z,71.90
2017-10-19T20:08:09.439Z,71.30
2017-10-19T20:10:35.628Z,72.10
2017-10-19T20:13:01.816Z,72.10
2017-10-19T20:15:28.040Z,71.40
2017-10-19T20:17:54.230Z,72.00
2017-10-19T20:20:21.198Z,71.90
2017-10-19T20:22:47.876Z,71.90
2017-10-19T20:25:14.108Z,72.00
2017-10-19T20:27:40.258Z,71.60
2017-10-19T20:30:06.484Z,71.80
2017-10-19T20:32:33.456Z,71.60
2017-10-19T20:34:59.618Z,71.50
2017-10-19T20:37:25.819Z,71.40
2017-10-19T20:39:51.961Z,71.50
2017-10-19T20:42:18.157Z,71.30
2017-10-19T20:44:44.354Z,71.50
2017-10-19T20:47:10.532Z,71.70
2017-10-19T20:49:36.766Z,71.60
2017-10-19T20:52:02.988Z,71.70
2017-10-19T20:54:29.137Z,71.20
2017-10-19T20:56:55.341Z,71.20
2017-10-19T20:59:21.538Z,70.80
2017-10-19T21:01:47.706Z,71.30
2017-10-19T21:04:13.851Z,71.40
2017-10-19T21:06:40.061Z,71.80
2017-10-19T21:09:06.300Z,72.20
2017-10-19T21:11:32.504Z,72.00
2017-10-19T21:13:58.695Z,71.70
2017-10-19T21:16:24.908Z,71.80
2017-10-19T21:18:51.107Z,71.80
2017-10-19T21:21:17.321Z,72.10
2017-10-19T21:23:43.484Z,72.10
2017-10-19T21:26:09.701Z,72.30
2017-10-19T21:28:35.934Z,72.00
2017-10-19T21:31:02.085Z,71.90
2017-10-19T21:33:28.996Z,71.90
2017-10-19T21:35:55.217Z,71.90
2017-10-19T21:38:21.369Z,72.20
2017-10-19T21:40:47.547Z,72.20
2017-10-19T21:43:13.785Z,72.20
2017-10-19T21:45:40.025Z,72.40
2017-10-19T21:48:07.697Z,72.50
2017-10-19T21:50:33.976Z,72.30
2017-10-19T21:53:00.961Z,71.90
2017-10-19T21:55:27.106Z,71.70
2017-10-19T21:57:53.291Z,71.10
2017-10-19T22:00:19.473Z,71.60
2017-10-19T22:02:45.688Z,71.60
2017-10-19T22:05:16.965Z,72.10
2017-10-19T22:07:44.479Z,71.60
2017-10-19T22:10:19.075Z,72.10
2017-10-19T22:13:01.917Z,71.90
2017-10-19T22:15:30.757Z,71.90
2017-10-19T22:18:03.953Z,72.00
2017-10-19T22:20:39.402Z,71.60
2017-10-19T22:23:13.385Z,71.50
2017-10-19T22:25:39.646Z,71.50
2017-10-19T22:28:05.909Z,71.40
2017-10-19T22:45:08.216Z,71.10
2017-10-19T22:48:02.204Z,71.50
2017-10-19T22:53:49.714Z,71.60
2017-10-19T22:58:49.014Z,72.50
2017-10-19T23:01:15.208Z,72.10
2017-10-19T23:03:43.047Z,72.60
2017-10-19T23:06:12.190Z,71.80
2017-10-19T23:08:40.503Z,71.20
2017-10-19T23:11:08.027Z,71.60
2017-10-19T23:13:34.997Z,71.50
2017-10-19T23:16:02.279Z,71.50
2017-10-19T23:18:35.868Z,71.80
2017-10-19T23:21:02.095Z,72.90
2017-10-19T23:23:32.417Z,71.90
2017-10-19T23:26:03.540Z,72.10
2017-10-19T23:28:29.774Z,71.30
2017-10-19T23:30:59.701Z,71.40
2017-10-19T23:33:33.230Z,71.60
2017-10-19T23:36:00.298Z,71.20
2017-10-19T23:38:26.776Z,71.70
2017-10-19T23:40:53.015Z,71.50
2017-10-19T23:43:23.946Z,71.70
2017-10-19T23:45:58.276Z,71.30
2017-10-19T23:48:28.021Z,71.00
2017-10-19T23:50:56.238Z,71.50
2017-10-19T23:53:27.289Z,71.70
2017-10-19T23:55:53.506Z,71.60
2017-10-19T23:58:19.614Z,72.10
